createdAt,value
2022-12-26T00:02:00.276Z,18.98
2022-12-26T00:04:51.180Z,19.98
2022-12-26T00:07:18.813Z,20.17
2022-12-26T00:09:48.165Z,18.75
2022-12-26T00:12:17.312Z,20.67
2022-12-26T00:14:46.512Z,21.15
2022-12-26T00:17:17.207Z,21.17
2022-12-26T00:19:46.392Z,23.30
2022-12-26T00:22:16.058Z,22.08
2022-12-26T00:24:45.268Z,22.05
2022-12-26T00:27:14.484Z,24.60
2022-12-26T00:29:43.747Z,25.05
2022-12-26T00:32:12.914Z,25.67
2022-12-26T00:34:43.684Z,25.10
2022-12-26T00:37:12.777Z,22.75
2022-12-26T00:39:41.879Z,24.13
2022-12-26T00:42:11.012Z,25.48
2022-12-26T00:44:40.150Z,24.75
2022-12-26T00:47:09.511Z,21.75
2022-12-26T00:50:13.960Z,21.15
2022-12-26T00:52:29.407Z,20.27
2022-12-26T00:54:58.525Z,19.13
2022-12-26T00:57:27.640Z,19.23
2022-12-26T00:59:56.862Z,19.08
2022-12-26T01:02:41.128Z,17.23
2022-12-26T01:05:13.038Z,16.08
2022-12-26T01:08:19.596Z,14.88
2022-12-26T01:10:32.704Z,15.73
2022-12-26T01:13:01.740Z,16.73
2022-12-26T01:15:30.825Z,17.80
2022-12-26T01:18:00.908Z,16.33
2022-12-26T01:20:30.191Z,15.50
2022-12-26T01:23:00.904Z,15.75
2022-12-26T01:25:30.124Z,16.13
2022-12-26T01:27:59.245Z,17.05
2022-12-26T01:30:28.549Z,17.98
2022-12-26T01:32:57.932Z,20.50
2022-12-26T01:35:27.048Z,20.00
2022-12-26T01:37:56.601Z,17.75
2022-12-26T01:40:27.696Z,15.75
2022-12-26T01:42:56.906Z,17.92
2022-12-26T01:45:29.967Z,18.25
2022-12-26T01:48:05.023Z,18.40
2022-12-26T01:50:42.878Z,16.67
2022-12-26T01:53:18.399Z,16.80
2022-12-26T01:55:53.961Z,15.35
2022-12-26T01:58:28.888Z,17.08
2022-12-26T02:00:58.567Z,21.10
2022-12-26T02:03:45.594Z,18.33
2022-12-26T02:06:16.233Z,18.35
2022-12-26T02:08:47.612Z,17.13
2022-12-26T02:11:24.039Z,16.55
2022-12-26T02:13:55.012Z,17.23
2022-12-26T02:16:25.738Z,17.08
2022-12-26T02:18:55.187Z,17.00
2022-12-26T02:21:56.341Z,18.55
2022-12-26T02:25:06.314Z,21.92
2022-12-26T02:28:23.460Z,24.08
2022-12-26T02:31:01.441Z,21.88
2022-12-26T02:33:56.575Z,22.75
2022-12-26T02:36:58.115Z,22.70
2022-12-26T02:39:52.831Z,21.30
2022-12-26T02:42:33.182Z,19.63
2022-12-26T02:45:30.831Z,19.88
2022-12-26T02:48:08.849Z,17.63
2022-12-26T02:51:11.662Z,16.33
2022-12-26T02:54:09.027Z,16.25
2022-12-26T02:57:00.941Z,15.67
2022-12-26T02:59:57.639Z,16.75
2022-12-26T03:02:52.340Z,17.10
2022-12-26T03:05:47.631Z,16.75
2022-12-26T03:08:45.320Z,18.30
2022-12-26T03:11:32.211Z,19.63
2022-12-26T03:14:12.273Z,19.15
2022-12-26T03:16:59.550Z,19.55
2022-12-26T03:19:32.427Z,17.70
2022-12-26T03:22:25.898Z,17.55
2022-12-26T03:25:12.864Z,16.50
2022-12-26T03:27:42.062Z,15.35
2022-12-26T03:30:25.755Z,15.73
2022-12-26T03:32:58.286Z,17.77
2022-12-26T03:35:33.720Z,17.92
2022-12-26T03:38:12.944Z,17.10
2022-12-26T03:41:11.640Z,17.75
2022-12-26T03:44:24.550Z,16.83
2022-12-26T03:47:28.448Z,16.83
2022-12-26T03:50:21.865Z,16.65
2022-12-26T03:53:20.482Z,17.38
2022-12-26T03:56:16.508Z,15.52
2022-12-26T03:59:09.939Z,16.52
2022-12-26T04:02:01.780Z,17.98
2022-12-26T04:04:51.734Z,17.77
2022-12-26T04:07:55.836Z,16.67
2022-12-26T04:10:50.089Z,15.55
2022-12-26T04:13:43.451Z,16.05
2022-12-26T04:16:36.701Z,15.50
2022-12-26T04:19:27.934Z,14.48
2022-12-26T04:22:23.143Z,12.85
2022-12-26T04:25:18.409Z,15.05
2022-12-26T04:28:05.088Z,16.63
2022-12-26T04:30:56.827Z,15.15
2022-12-26T04:33:50.194Z,17.05
2022-12-26T04:36:45.816Z,17.13
2022-12-26T04:39:36.063Z,16.98
2022-12-26T04:42:24.275Z,17.75
2022-12-26T04:44:54.469Z,18.73
2022-12-26T04:47:25.312Z,17.10
2022-12-26T04:50:12.033Z,16.48
2022-12-26T04:52:58.787Z,14.50
2022-12-26T04:55:29.830Z,13.97
2022-12-26T04:57:59.481Z,13.13
2022-12-26T05:00:30.295Z,14.00
2022-12-26T05:03:19.555Z,14.38
2022-12-26T05:06:10.590Z,13.07
2022-12-26T05:09:00.365Z,13.35
2022-12-26T05:11:31.768Z,12.63
2022-12-26T05:14:01.801Z,13.05
2022-12-26T05:16:49.090Z,13.13
2022-12-26T05:19:37.534Z,14.13
2022-12-26T05:22:24.757Z,12.27
2022-12-26T05:25:11.523Z,15.68
2022-12-26T05:28:02.356Z,14.90
2022-12-26T05:30:31.648Z,13.07
2022-12-26T05:33:18.039Z,12.05
2022-12-26T05:35:48.478Z,12.15
2022-12-26T05:38:17.623Z,11.35
2022-12-26T05:40:46.872Z,15.82
2022-12-26T05:43:15.964Z,14.23
2022-12-26T05:45:45.081Z,14.02
2022-12-26T05:48:16.567Z,12.52
2022-12-26T05:50:45.740Z,11.98
2022-12-26T05:53:16.386Z,13.88
2022-12-26T05:55:45.453Z,11.98
2022-12-26T05:58:14.576Z,12.25
2022-12-26T06:00:43.609Z,13.15
2022-12-26T06:03:12.878Z,11.55
2022-12-26T06:05:42.560Z,12.18
2022-12-26T06:08:11.618Z,12.45
2022-12-26T06:10:42.201Z,12.48
2022-12-26T06:13:11.546Z,14.77
2022-12-26T06:15:40.827Z,14.60
2022-12-26T06:18:09.909Z,13.88
2022-12-26T06:20:40.625Z,12.52
2022-12-26T06:23:10.024Z,14.75
2022-12-26T06:25:39.132Z,14.20
2022-12-26T06:28:10.854Z,14.98
2022-12-26T06:30:40.099Z,12.98
2022-12-26T06:33:09.343Z,12.85
2022-12-26T06:35:38.471Z,13.77
2022-12-26T06:38:07.695Z,13.32
2022-12-26T06:40:40.721Z,13.35
2022-12-26T06:43:11.760Z,14.07
2022-12-26T06:45:41.048Z,14.38
2022-12-26T06:48:10.451Z,12.20
2022-12-26T06:50:39.482Z,13.43
2022-12-26T06:53:08.713Z,13.25
2022-12-26T06:55:37.805Z,13.75
2022-12-26T06:58:07.003Z,14.30
2022-12-26T07:00:37.655Z,16.08
2022-12-26T07:03:06.926Z,16.67
2022-12-26T07:05:37.536Z,16.15
2022-12-26T07:08:07.840Z,16.02
2022-12-26T07:10:38.013Z,16.15
2022-12-26T07:13:07.104Z,16.25
2022-12-26T07:15:37.623Z,14.93
2022-12-26T07:18:06.802Z,13.57
2022-12-26T07:20:35.965Z,14.25
2022-12-26T07:23:05.019Z,13.85
2022-12-26T07:25:34.066Z,13.88
2022-12-26T07:28:03.069Z,13.38
2022-12-26T07:30:32.267Z,13.85
2022-12-26T07:33:02.806Z,13.13
2022-12-26T07:35:32.158Z,12.73
2022-12-26T07:38:01.210Z,12.18
2022-12-26T07:40:30.377Z,11.73
2022-12-26T07:42:59.416Z,11.95
2022-12-26T07:45:28.625Z,11.85
2022-12-26T07:47:59.740Z,12.05
2022-12-26T07:50:30.667Z,12.40
2022-12-26T07:53:01.001Z,13.60
2022-12-26T07:55:30.208Z,14.32
2022-12-26T07:57:59.403Z,13.73
2022-12-26T08:00:28.486Z,14.55
2022-12-26T08:03:04.742Z,15.38
2022-12-26T08:05:37.514Z,13.13
2022-12-26T08:08:06.694Z,13.15
2022-12-26T08:10:35.807Z,14.68
2022-12-26T08:13:05.059Z,11.68
2022-12-26T08:15:34.383Z,12.35
2022-12-26T08:18:03.620Z,11.75
2022-12-26T08:20:33.013Z,11.15
2022-12-26T08:23:03.501Z,10.38
2022-12-26T08:25:32.764Z,9.70
2022-12-26T08:28:02.013Z,10.27
2022-12-26T08:30:31.153Z,10.82
2022-12-26T08:33:00.369Z,12.43
2022-12-26T08:35:30.285Z,10.45
2022-12-26T08:37:59.329Z,10.77
2022-12-26T08:40:42.747Z,11.70
2022-12-26T08:46:05.426Z,14.00
2022-12-26T08:48:35.524Z,12.30
2022-12-26T08:51:09.759Z,13.07
2022-12-26T08:53:39.351Z,13.35
2022-12-26T08:56:14.710Z,13.40
2022-12-26T08:58:44.643Z,11.95
2022-12-26T09:01:17.389Z,11.32
2022-12-26T09:03:47.217Z,10.32
2022-12-26T09:06:17.252Z,10.32
2022-12-26T09:08:46.393Z,10.50
2022-12-26T09:11:23.210Z,10.27
2022-12-26T09:16:23.793Z,10.40
2022-12-26T09:18:57.356Z,10.15
2022-12-26T09:21:27.331Z,10.30
2022-12-26T09:23:59.136Z,9.93
2022-12-26T09:26:30.429Z,10.55
2022-12-26T09:29:00.490Z,9.18
2022-12-26T09:31:32.216Z,8.82
2022-12-26T09:34:03.755Z,9.57
2022-12-26T09:36:38.310Z,9.52
2022-12-26T09:39:09.339Z,9.40
2022-12-26T09:41:59.450Z,9.52
2022-12-26T09:44:43.931Z,10.80
2022-12-26T09:47:33.894Z,12.07
2022-12-26T09:50:13.921Z,12.35
2022-12-26T09:52:49.863Z,11.43
2022-12-26T09:55:38.520Z,10.85
2022-12-26T09:58:20.416Z,10.40
2022-12-26T10:00:54.973Z,10.40
2022-12-26T10:03:24.891Z,10.10
2022-12-26T10:06:18.092Z,10.48
2022-12-26T10:09:19.228Z,10.48
2022-12-26T10:12:11.233Z,10.73
2022-12-26T10:15:00.556Z,11.07
2022-12-26T10:17:38.033Z,10.82
2022-12-26T10:20:24.386Z,11.23
2022-12-26T10:23:28.376Z,11.18
2022-12-26T10:26:05.396Z,10.23
2022-12-26T10:28:40.919Z,9.30
2022-12-26T10:31:20.352Z,9.40
2022-12-26T10:33:57.489Z,9.45
2022-12-26T10:36:39.290Z,9.32
2022-12-26T10:39:18.858Z,9.43
2022-12-26T10:41:52.365Z,10.02
2022-12-26T10:44:27.640Z,9.77
2022-12-26T10:47:26.427Z,9.38
2022-12-26T10:49:59.814Z,10.10
2022-12-26T10:52:35.124Z,10.80
2022-12-26T10:55:29.718Z,11.15
2022-12-26T10:57:55.877Z,9.43
2022-12-26T11:00:28.495Z,11.20
2022-12-26T11:03:08.206Z,9.32
2022-12-26T11:06:10.075Z,10.07
2022-12-26T11:08:43.256Z,10.00
2022-12-26T11:11:21.226Z,11.95
2022-12-26T11:14:02.085Z,10.93
2022-12-26T11:16:35.761Z,9.98
2022-12-26T11:19:06.583Z,10.00
2022-12-26T11:21:38.194Z,10.00
2022-12-26T11:24:20.744Z,10.75
2022-12-26T11:26:50.264Z,9.20
2022-12-26T11:29:21.831Z,10.35
2022-12-26T11:31:57.696Z,9.90
2022-12-26T11:34:34.669Z,10.63
2022-12-26T11:37:06.479Z,9.18
2022-12-26T11:39:39.108Z,9.07
2022-12-26T11:42:12.483Z,9.23
2022-12-26T11:44:45.632Z,10.40
2022-12-26T11:47:18.296Z,9.55
2022-12-26T11:49:59.359Z,9.45
2022-12-26T11:52:38.581Z,9.43
2022-12-26T11:55:34.013Z,10.90
2022-12-26T11:58:16.772Z,9.55
2022-12-26T12:01:18.010Z,9.95
2022-12-26T12:03:50.435Z,8.68
2022-12-26T12:06:48.040Z,8.77
2022-12-26T12:09:25.432Z,8.75
2022-12-26T12:14:54.193Z,8.23
2022-12-26T12:17:30.005Z,7.65
2022-12-26T12:20:20.338Z,8.50
2022-12-26T12:23:07.718Z,8.15
2022-12-26T12:25:51.463Z,8.52
2022-12-26T12:29:21.340Z,8.05
2022-12-26T12:32:13.999Z,7.72
2022-12-26T12:35:14.454Z,7.70
2022-12-26T12:38:12.667Z,7.97
2022-12-26T12:40:50.828Z,7.47
2022-12-26T12:43:29.871Z,7.95
2022-12-26T12:46:12.583Z,7.03
2022-12-26T12:49:05.064Z,6.85
2022-12-26T12:51:43.770Z,7.70
2022-12-26T12:54:50.179Z,7.88
2022-12-26T12:57:31.465Z,7.15
2022-12-26T13:00:16.266Z,7.85
2022-12-26T13:02:53.577Z,7.43
2022-12-26T13:08:20.057Z,6.93
2022-12-26T13:10:55.780Z,7.65
2022-12-26T13:13:37.131Z,7.97
2022-12-26T13:16:14.342Z,7.88
2022-12-26T13:18:51.820Z,8.75
2022-12-26T13:24:18.470Z,8.00
2022-12-26T13:26:58.271Z,7.53
2022-12-26T13:29:40.500Z,7.30
2022-12-26T13:32:21.909Z,7.60
2022-12-26T13:34:53.565Z,7.85
2022-12-26T13:37:57.157Z,7.85
2022-12-26T13:40:30.914Z,7.35
2022-12-26T13:43:26.819Z,7.13
2022-12-26T13:45:58.249Z,6.70
2022-12-26T13:49:27.229Z,6.63
2022-12-26T13:51:59.820Z,6.65
2022-12-26T13:54:30.710Z,6.90
2022-12-26T13:57:38.767Z,6.07
2022-12-26T14:00:20.584Z,6.30
2022-12-26T14:03:45.386Z,7.07
2022-12-26T14:06:50.548Z,6.28
2022-12-26T14:09:58.388Z,6.32
2022-12-26T14:13:02.074Z,5.75
2022-12-26T14:15:49.029Z,6.88
2022-12-26T14:18:42.677Z,6.55
2022-12-26T14:21:40.630Z,6.80
2022-12-26T14:24:32.691Z,7.07
2022-12-26T14:27:26.213Z,6.82
2022-12-26T14:30:18.713Z,6.47
2022-12-26T14:33:20.042Z,6.15
2022-12-26T14:36:15.259Z,6.55
2022-12-26T14:38:53.307Z,6.70
2022-12-26T14:41:41.133Z,6.55
2022-12-26T14:44:41.554Z,6.55
2022-12-26T14:47:12.115Z,7.53
2022-12-26T14:49:44.228Z,7.70
2022-12-26T14:52:43.384Z,6.75
2022-12-26T14:55:50.367Z,7.43
2022-12-26T14:58:43.782Z,7.20
2022-12-26T15:01:50.133Z,7.75
2022-12-26T15:05:09.551Z,7.22
2022-12-26T15:08:39.633Z,8.18
2022-12-26T15:14:40.620Z,7.47
2022-12-26T15:17:23.659Z,9.15
2022-12-26T15:20:38.778Z,8.70
2022-12-26T15:24:15.529Z,8.80
2022-12-26T15:27:15.251Z,7.97
2022-12-26T15:30:20.416Z,6.72
2022-12-26T15:32:59.981Z,6.90
2022-12-26T15:35:35.763Z,9.82
2022-12-26T15:38:28.972Z,8.68
2022-12-26T15:41:12.977Z,8.93
2022-12-26T15:43:58.919Z,9.85
2022-12-26T15:46:32.258Z,6.90
2022-12-26T15:49:24.758Z,7.00
2022-12-26T15:52:10.373Z,10.38
2022-12-26T15:55:25.943Z,8.18
2022-12-26T15:58:03.642Z,8.18
2022-12-26T16:00:35.727Z,7.88
2022-12-26T16:03:35.704Z,7.13
2022-12-26T16:06:30.744Z,6.60
2022-12-26T16:09:26.309Z,6.28
2022-12-26T16:11:58.005Z,6.45
2022-12-26T16:14:33.679Z,7.00
2022-12-26T16:17:24.078Z,11.43
2022-12-26T16:19:54.305Z,18.02
2022-12-26T16:22:46.983Z,17.88
2022-12-26T16:25:26.180Z,15.88
2022-12-26T16:27:58.600Z,12.93
2022-12-26T16:30:38.552Z,10.82
2022-12-26T16:33:08.854Z,11.00
2022-12-26T16:35:42.054Z,18.08
2022-12-26T16:38:17.063Z,17.08
2022-12-26T16:40:48.376Z,13.50
2022-12-26T16:43:28.121Z,12.43
2022-12-26T16:46:04.115Z,13.07
2022-12-26T16:48:35.343Z,11.85
2022-12-26T16:51:07.876Z,12.30
2022-12-26T16:53:45.920Z,11.35
2022-12-26T16:56:27.746Z,11.80
2022-12-26T16:59:04.992Z,11.10
2022-12-26T17:04:09.290Z,13.98
2022-12-26T17:06:43.306Z,13.40
2022-12-26T17:09:17.383Z,10.30
2022-12-26T17:11:57.099Z,10.52
2022-12-26T17:14:29.944Z,12.88
2022-12-26T17:17:06.102Z,11.07
2022-12-26T17:19:38.216Z,13.20
2022-12-26T17:22:23.584Z,13.20
2022-12-26T17:25:13.640Z,13.60
2022-12-26T17:27:44.361Z,12.00
2022-12-26T17:30:29.690Z,12.85
2022-12-26T17:33:05.831Z,13.60
2022-12-26T17:36:25.266Z,13.80
2022-12-26T17:38:29.234Z,13.82
2022-12-26T17:41:07.712Z,15.75
2022-12-26T17:43:39.385Z,17.20
2022-12-26T17:46:13.491Z,23.05
2022-12-26T17:48:44.559Z,18.50
2022-12-26T17:51:18.414Z,16.65
2022-12-26T17:53:51.994Z,18.33
2022-12-26T17:56:27.300Z,16.15
2022-12-26T17:58:56.491Z,18.95
2022-12-26T18:01:25.830Z,20.85
2022-12-26T18:03:56.448Z,21.20
2022-12-26T18:06:26.802Z,17.60
2022-12-26T18:08:56.952Z,24.00
2022-12-26T18:11:27.216Z,24.33
2022-12-26T18:13:56.436Z,23.45
2022-12-26T18:16:28.464Z,16.52
2022-12-26T18:19:00.836Z,17.27
2022-12-26T18:21:30.950Z,13.18
2022-12-26T18:24:00.280Z,9.23
2022-12-26T18:26:33.435Z,8.32
2022-12-26T18:29:03.209Z,8.55
2022-12-26T18:31:32.432Z,8.85
2022-12-26T18:34:03.163Z,8.48
2022-12-26T18:36:35.645Z,9.85
2022-12-26T18:39:06.048Z,12.57
2022-12-26T18:41:36.176Z,13.82
2022-12-26T18:44:05.535Z,16.52
2022-12-26T18:46:35.309Z,16.42
2022-12-26T18:49:05.970Z,17.77
2022-12-26T18:51:37.274Z,16.63
2022-12-26T18:54:06.659Z,19.02
2022-12-26T18:56:36.176Z,19.10
2022-12-26T18:59:05.410Z,15.98
2022-12-26T19:01:34.684Z,16.00
2022-12-26T19:04:05.857Z,17.02
2022-12-26T19:06:35.343Z,16.45
2022-12-26T19:09:04.717Z,17.85
2022-12-26T19:11:33.899Z,13.52
2022-12-26T19:14:04.638Z,13.40
2022-12-26T19:16:33.928Z,16.25
2022-12-26T19:19:03.170Z,19.48
2022-12-26T19:21:33.754Z,21.55
2022-12-26T19:24:02.905Z,18.48
2022-12-26T19:26:32.124Z,19.80
2022-12-26T19:29:01.194Z,19.73
2022-12-26T19:31:30.619Z,17.73
2022-12-26T19:33:59.811Z,24.10
2022-12-26T19:36:29.198Z,20.48
2022-12-26T19:38:59.830Z,18.55
2022-12-26T19:41:29.084Z,16.13
2022-12-26T19:43:59.486Z,19.88
2022-12-26T19:46:29.675Z,19.38
2022-12-26T19:48:58.902Z,19.10
2022-12-26T19:51:28.205Z,16.20
2022-12-26T19:53:59.758Z,13.95
2022-12-26T19:56:30.079Z,14.05
2022-12-26T19:59:00.646Z,15.38
2022-12-26T20:01:33.642Z,15.25
2022-12-26T20:04:05.890Z,13.98
2022-12-26T20:06:38.067Z,13.27
2022-12-26T20:09:11.771Z,14.35
2022-12-26T20:11:43.704Z,17.23
2022-12-26T20:14:16.126Z,15.10
2022-12-26T20:17:05.060Z,14.63
2022-12-26T20:19:35.848Z,15.18
2022-12-26T20:22:06.633Z,16.15
2022-12-26T20:24:37.474Z,19.77
2022-12-26T20:27:06.828Z,18.15
2022-12-26T20:29:35.957Z,17.75
2022-12-26T20:32:05.318Z,17.92
2022-12-26T20:34:34.669Z,23.02
2022-12-26T20:37:04.100Z,25.85
2022-12-26T20:39:33.200Z,27.17
2022-12-26T20:42:04.154Z,22.88
2022-12-26T20:44:33.417Z,22.05
2022-12-26T20:47:02.567Z,20.10
2022-12-26T20:49:31.859Z,18.38
2022-12-26T20:52:01.162Z,21.35
2022-12-26T20:54:30.913Z,17.70
2022-12-26T20:57:00.245Z,22.10
2022-12-26T20:59:30.737Z,21.48
2022-12-26T21:02:00.103Z,21.40
2022-12-26T21:04:29.740Z,21.20
2022-12-26T21:06:59.119Z,20.13
2022-12-26T21:09:28.339Z,20.92
2022-12-26T21:11:57.831Z,22.50
2022-12-26T21:14:26.986Z,18.05
2022-12-26T21:16:59.879Z,17.20
2022-12-26T21:19:30.677Z,18.10
2022-12-26T21:22:00.751Z,17.48
2022-12-26T21:24:32.979Z,17.33
2022-12-26T21:27:02.463Z,17.15
2022-12-26T21:29:35.257Z,17.83
2022-12-26T21:32:09.246Z,16.50
2022-12-26T21:34:38.982Z,22.05
2022-12-26T21:37:34.107Z,24.80
2022-12-26T21:40:03.516Z,19.88
2022-12-26T21:42:33.204Z,17.10
2022-12-26T21:45:02.436Z,16.25
2022-12-26T21:47:32.965Z,15.93
2022-12-26T21:50:02.112Z,16.17
2022-12-26T21:52:31.474Z,17.25
2022-12-26T21:55:18.191Z,16.13
2022-12-26T21:57:47.305Z,16.65
2022-12-26T22:00:17.348Z,16.63
2022-12-26T22:03:05.487Z,16.42
2022-12-26T22:05:38.431Z,17.98
2022-12-26T22:08:11.310Z,16.75
2022-12-26T22:11:02.893Z,15.63
2022-12-26T22:13:38.727Z,15.20
2022-12-26T22:16:11.287Z,16.05
2022-12-26T22:18:46.539Z,16.35
2022-12-26T22:21:18.385Z,16.33
2022-12-26T22:23:50.432Z,18.02
2022-12-26T22:26:22.033Z,17.23
2022-12-26T22:28:51.330Z,17.20
2022-12-26T22:31:23.704Z,19.45
2022-12-26T22:33:57.587Z,21.45
2022-12-26T22:36:28.303Z,19.67
2022-12-26T22:38:57.808Z,19.92
2022-12-26T22:41:27.382Z,19.23
2022-12-26T22:43:57.636Z,18.95
2022-12-26T22:46:27.040Z,18.20
2022-12-26T22:48:57.605Z,18.23
2022-12-26T22:51:28.073Z,19.65
2022-12-26T22:54:00.299Z,19.83
2022-12-26T22:56:30.073Z,21.05
2022-12-26T22:59:01.046Z,20.55
2022-12-26T23:01:30.500Z,21.42
2022-12-26T23:04:02.117Z,23.05
2022-12-26T23:06:36.134Z,24.20
2022-12-26T23:09:12.705Z,24.90
2022-12-26T23:11:42.718Z,27.42
2022-12-26T23:14:14.068Z,26.98
2022-12-26T23:16:51.566Z,29.25
2022-12-26T23:20:01.471Z,27.98
2022-12-26T23:22:31.449Z,28.33
2022-12-26T23:25:00.568Z,25.77
2022-12-26T23:27:47.196Z,25.67
2022-12-26T23:30:19.117Z,26.08
2022-12-26T23:32:51.565Z,24.75
2022-12-26T23:35:23.484Z,19.35
2022-12-26T23:37:53.120Z,18.17
2022-12-26T23:40:22.971Z,18.95
2022-12-26T23:42:52.187Z,18.48
2022-12-26T23:45:21.490Z,19.67
2022-12-26T23:47:50.645Z,20.30
2022-12-26T23:50:21.296Z,18.67
2022-12-26T23:52:50.368Z,18.63
2022-12-26T23:55:19.640Z,17.48
2022-12-26T23:57:48.801Z,17.52
